createdAt,value
2018-10-21T00:01:15.766Z,5.08
2018-10-21T00:03:19.795Z,7.05
2018-10-21T00:05:23.877Z,5.70
2018-10-21T00:07:27.989Z,6.30
2018-10-21T00:09:32.064Z,5.63
2018-10-21T00:11:36.177Z,4.53
2018-10-21T00:13:40.255Z,6.23
2018-10-21T00:15:44.459Z,5.60
2018-10-21T00:17:48.452Z,5.95
2018-10-21T00:19:52.569Z,6.33
2018-10-21T00:21:56.636Z,5.78
2018-10-21T00:24:00.953Z,6.13
2018-10-21T00:26:05.232Z,7.03
2018-10-21T00:28:09.343Z,5.20
2018-10-21T00:30:13.420Z,7.30
2018-10-21T00:32:17.512Z,6.95
2018-10-21T00:34:22.596Z,7.10
2018-10-21T00:36:26.652Z,6.37
2018-10-21T00:38:30.751Z,5.60
2018-10-21T00:40:35.008Z,5.77
2018-10-21T00:42:39.623Z,4.77
2018-10-21T00:44:43.729Z,6.60
2018-10-21T00:46:47.825Z,5.83
2018-10-21T00:48:52.020Z,9.40
2018-10-21T00:50:56.132Z,6.00
2018-10-21T00:53:00.183Z,4.37
2018-10-21T00:55:04.706Z,5.80
2018-10-21T00:57:08.884Z,6.27
2018-10-21T00:59:12.891Z,6.47
2018-10-21T01:01:16.983Z,6.33
2018-10-21T01:03:21.040Z,5.77
2018-10-21T01:05:31.933Z,6.37
2018-10-21T01:07:36.046Z,6.23
2018-10-21T01:11:41.624Z,7.07
2018-10-21T01:13:45.733Z,7.77
2018-10-21T01:15:49.831Z,6.47
2018-10-21T01:17:53.901Z,6.92
2018-10-21T01:19:58.036Z,5.57
2018-10-21T01:22:03.115Z,8.95
2018-10-21T01:24:07.416Z,5.97
2018-10-21T01:26:11.530Z,6.40
2018-10-21T01:28:15.605Z,6.60
2018-10-21T01:30:19.711Z,6.05
2018-10-21T01:32:23.780Z,5.70
2018-10-21T01:34:27.871Z,6.60
2018-10-21T01:36:32.160Z,6.47
2018-10-21T01:38:36.059Z,5.60
2018-10-21T01:40:43.017Z,6.50
2018-10-21T01:42:47.133Z,6.10
2018-10-21T01:44:51.228Z,6.65
2018-10-21T01:46:55.315Z,5.77
2018-10-21T01:48:59.392Z,7.70
2018-10-21T01:51:03.493Z,5.57
2018-10-21T01:53:08.763Z,7.87
2018-10-21T01:55:12.825Z,6.97
2018-10-21T01:57:16.974Z,5.72
2018-10-21T01:59:20.976Z,6.53
2018-10-21T02:01:25.091Z,7.73
2018-10-21T02:03:29.186Z,6.43
2018-10-21T02:05:35.157Z,7.53
2018-10-21T02:07:39.543Z,5.97
2018-10-21T02:09:43.638Z,7.03
2018-10-21T02:11:48.333Z,6.10
2018-10-21T02:13:52.537Z,6.33
2018-10-21T02:15:56.625Z,7.73
2018-10-21T02:18:00.738Z,9.25
2018-10-21T02:20:04.912Z,6.43
2018-10-21T02:22:08.974Z,6.83
2018-10-21T02:24:13.089Z,7.03
2018-10-21T02:26:17.167Z,8.90
2018-10-21T02:28:21.277Z,6.00
2018-10-21T02:30:27.659Z,6.07
2018-10-21T02:32:31.741Z,5.95
2018-10-21T02:34:35.845Z,8.30
2018-10-21T02:36:40.065Z,6.92
2018-10-21T02:38:44.136Z,6.70
2018-10-21T02:41:38.144Z,8.50
2018-10-21T02:43:42.305Z,5.78
2018-10-21T02:45:46.381Z,5.53
2018-10-21T02:47:50.434Z,5.93
2018-10-21T02:49:54.869Z,7.77
2018-10-21T02:52:10.664Z,6.33
2018-10-21T02:54:15.515Z,7.20
2018-10-21T02:56:19.634Z,6.77
2018-10-21T02:58:23.749Z,7.10
2018-10-21T03:00:27.852Z,7.57
2018-10-21T03:02:32.004Z,7.83
2018-10-21T03:04:36.196Z,6.27
2018-10-21T03:06:40.269Z,6.70
2018-10-21T03:08:44.389Z,6.27
2018-10-21T03:10:48.439Z,8.10
2018-10-21T03:12:52.522Z,5.73
2018-10-21T03:14:56.652Z,6.53
2018-10-21T03:17:00.757Z,8.03
2018-10-21T03:19:04.865Z,6.93
2018-10-21T03:21:09.093Z,6.87
2018-10-21T03:23:13.658Z,7.92
2018-10-21T03:25:17.709Z,10.97
2018-10-21T03:27:21.871Z,7.03
2018-10-21T03:29:25.979Z,7.10
2018-10-21T03:31:30.088Z,6.80
2018-10-21T03:33:35.206Z,7.82
2018-10-21T03:35:39.310Z,7.47
2018-10-21T03:37:43.321Z,7.12
2018-10-21T03:39:47.400Z,8.60
2018-10-21T03:41:51.504Z,7.40
2018-10-21T03:43:55.617Z,7.53
2018-10-21T03:45:59.728Z,8.90
2018-10-21T03:48:03.769Z,8.28
2018-10-21T03:50:07.869Z,7.75
2018-10-21T03:52:12.150Z,6.47
2018-10-21T03:54:16.124Z,6.57
2018-10-21T03:56:20.220Z,7.17
2018-10-21T03:58:24.365Z,8.90
2018-10-21T04:00:28.465Z,6.50
2018-10-21T04:02:32.535Z,7.67
2018-10-21T04:04:36.639Z,7.67
2018-10-21T04:06:40.738Z,6.28
2018-10-21T04:08:44.809Z,8.73
2018-10-21T04:10:48.957Z,8.20
2018-10-21T04:12:53.028Z,8.90
2018-10-21T04:14:57.123Z,7.70
2018-10-21T04:17:01.195Z,8.53
2018-10-21T04:19:05.555Z,7.40
2018-10-21T04:21:09.666Z,7.63
2018-10-21T04:23:13.807Z,7.93
2018-10-21T04:25:18.057Z,8.33
2018-10-21T04:27:22.169Z,9.10
2018-10-21T04:29:26.295Z,9.00
2018-10-21T04:31:30.380Z,7.37
2018-10-21T04:33:49.773Z,8.97
2018-10-21T04:35:53.863Z,7.53
2018-10-21T04:40:22.046Z,6.83
2018-10-21T04:42:26.151Z,7.37
2018-10-21T04:44:30.221Z,8.50
2018-10-21T04:46:34.350Z,7.77
2018-10-21T04:48:38.404Z,7.80
2018-10-21T04:50:42.575Z,9.90
2018-10-21T04:52:46.677Z,7.37
2018-10-21T04:54:50.947Z,7.23
2018-10-21T04:56:55.890Z,10.80
2018-10-21T04:58:59.944Z,8.10
2018-10-21T05:01:04.164Z,9.70
2018-10-21T05:03:08.264Z,9.20
2018-10-21T05:05:13.371Z,8.60
2018-10-21T05:07:17.499Z,7.47
2018-10-21T05:09:21.508Z,7.95
2018-10-21T05:11:25.606Z,8.43
2018-10-21T05:13:29.756Z,7.73
2018-10-21T05:15:35.100Z,9.33
2018-10-21T05:17:39.083Z,9.30
2018-10-21T05:19:43.180Z,8.90
2018-10-21T05:21:47.239Z,7.73
2018-10-21T05:23:51.567Z,6.97
2018-10-21T05:25:56.168Z,9.03
2018-10-21T05:28:00.230Z,8.00
2018-10-21T05:30:04.778Z,8.80
2018-10-21T05:32:08.863Z,8.60
2018-10-21T05:34:12.952Z,7.70
2018-10-21T05:36:18.305Z,7.90
2018-10-21T05:38:22.380Z,7.92
2018-10-21T05:40:26.483Z,8.50
2018-10-21T05:42:30.733Z,10.20
2018-10-21T05:44:34.793Z,8.87
2018-10-21T05:46:43.151Z,9.43
2018-10-21T05:48:47.212Z,11.25
2018-10-21T05:50:51.333Z,9.35
2018-10-21T05:52:56.329Z,11.22
2018-10-21T05:55:00.420Z,13.50
2018-10-21T05:57:04.516Z,9.37
2018-10-21T05:59:08.716Z,8.50
2018-10-21T06:01:12.760Z,9.33
2018-10-21T06:03:16.792Z,9.33
2018-10-21T06:05:46.048Z,9.77
2018-10-21T06:07:50.076Z,8.08
2018-10-21T06:09:54.304Z,9.73
2018-10-21T06:11:58.501Z,9.85
2018-10-21T06:14:02.804Z,8.57
2018-10-21T06:16:07.165Z,10.83
2018-10-21T06:18:14.109Z,9.15
2018-10-21T06:21:22.708Z,9.03
2018-10-21T06:23:26.837Z,9.17
2018-10-21T06:25:30.922Z,8.53
2018-10-21T06:27:35.099Z,9.95
2018-10-21T06:29:39.136Z,9.60
2018-10-21T06:31:43.252Z,9.30
2018-10-21T06:33:47.429Z,9.93
2018-10-21T06:35:51.439Z,8.20
2018-10-21T06:37:55.586Z,9.93
2018-10-21T06:39:59.752Z,9.63
2018-10-21T06:42:03.801Z,9.43
2018-10-21T06:44:07.897Z,9.70
2018-10-21T06:46:12.002Z,9.75
2018-10-21T06:48:16.097Z,9.10
2018-10-21T06:50:21.416Z,10.07
2018-10-21T06:52:25.553Z,10.53
2018-10-21T06:54:29.615Z,9.63
2018-10-21T06:56:33.879Z,10.77
2018-10-21T06:58:37.850Z,10.80
2018-10-21T07:00:41.968Z,9.13
2018-10-21T07:02:46.085Z,10.13
2018-10-21T07:04:50.244Z,9.40
2018-10-21T07:06:54.320Z,10.68
2018-10-21T07:09:03.052Z,10.63
2018-10-21T07:11:07.199Z,10.32
2018-10-21T07:13:11.293Z,9.75
2018-10-21T07:15:15.355Z,10.70
2018-10-21T07:17:19.452Z,10.60
2018-10-21T07:19:23.552Z,11.87
2018-10-21T07:21:27.665Z,10.75
2018-10-21T07:23:32.211Z,11.20
2018-10-21T07:25:36.319Z,10.47
2018-10-21T07:27:40.945Z,10.80
2018-10-21T07:29:45.044Z,11.63
2018-10-21T07:31:49.137Z,12.37
2018-10-21T07:33:53.222Z,11.22
2018-10-21T07:35:57.449Z,10.35
2018-10-21T07:38:02.204Z,9.95
2018-10-21T07:40:07.340Z,10.28
2018-10-21T07:42:11.323Z,9.90
2018-10-21T07:44:15.495Z,12.23
2018-10-21T07:46:19.639Z,9.93
2018-10-21T07:48:24.868Z,12.37
2018-10-21T07:50:28.968Z,9.80
2018-10-21T07:52:33.113Z,11.48
2018-10-21T07:54:37.492Z,11.00
2018-10-21T07:56:41.636Z,14.60
2018-10-21T07:58:46.675Z,11.10
2018-10-21T08:00:50.792Z,13.17
2018-10-21T08:02:54.918Z,11.47
2018-10-21T08:04:59.035Z,10.43
2018-10-21T08:07:20.302Z,11.33
2018-10-21T08:09:24.541Z,10.20
2018-10-21T08:11:28.720Z,13.00
2018-10-21T08:13:32.909Z,13.57
2018-10-21T08:15:37.065Z,11.23
2018-10-21T08:17:41.232Z,10.63
2018-10-21T08:19:45.324Z,10.73
2018-10-21T08:21:49.500Z,13.30
2018-10-21T08:23:53.644Z,10.73
2018-10-21T08:25:57.803Z,10.30
2018-10-21T08:28:01.999Z,10.70
2018-10-21T08:30:06.983Z,11.65
2018-10-21T08:32:11.102Z,12.80
2018-10-21T08:34:15.285Z,12.03
2018-10-21T08:36:19.433Z,11.33
2018-10-21T08:38:23.616Z,11.83
2018-10-21T08:40:27.944Z,11.83
2018-10-21T08:42:32.072Z,13.28
2018-10-21T08:44:36.176Z,9.73
2018-10-21T08:46:40.319Z,11.67
2018-10-21T08:48:44.484Z,12.80
2018-10-21T08:50:48.583Z,11.87
2018-10-21T08:52:52.767Z,12.00
2018-10-21T08:54:56.933Z,12.37
2018-10-21T08:57:01.027Z,13.37
2018-10-21T08:59:05.295Z,11.57
2018-10-21T09:01:09.504Z,10.87
2018-10-21T09:03:13.548Z,13.08
2018-10-21T09:05:18.940Z,10.55
2018-10-21T09:07:23.065Z,11.78
2018-10-21T09:09:27.244Z,11.22
2018-10-21T09:11:31.338Z,10.63
2018-10-21T09:13:35.456Z,11.97
2018-10-21T09:15:39.557Z,13.53
2018-10-21T09:17:43.729Z,11.93
2018-10-21T09:19:47.797Z,10.77
2018-10-21T09:21:51.916Z,10.27
2018-10-21T09:23:56.088Z,12.13
2018-10-21T09:26:00.216Z,9.20
2018-10-21T09:28:04.358Z,12.68
2018-10-21T09:30:10.500Z,12.15
2018-10-21T09:32:14.603Z,9.03
2018-10-21T09:34:18.741Z,11.10
2018-10-21T09:36:22.808Z,9.60
2018-10-21T09:38:27.520Z,9.95
2018-10-21T09:40:31.604Z,8.27
2018-10-21T09:42:35.725Z,8.10
2018-10-21T09:44:39.877Z,10.03
2018-10-21T09:46:43.996Z,7.62
2018-10-21T09:48:48.093Z,5.73
2018-10-21T09:50:52.248Z,8.43
2018-10-21T09:52:56.324Z,7.83
2018-10-21T09:55:00.527Z,8.20
2018-10-21T09:57:05.001Z,7.03
2018-10-21T09:59:09.356Z,7.43
2018-10-21T10:01:18.826Z,6.85
2018-10-21T10:03:22.913Z,5.08
2018-10-21T10:05:27.803Z,4.97
2018-10-21T10:07:31.895Z,6.70
2018-10-21T10:09:36.085Z,6.50
2018-10-21T10:11:40.381Z,4.00
2018-10-21T10:13:44.523Z,5.90
2018-10-21T10:15:48.636Z,5.00
2018-10-21T10:17:53.027Z,6.37
2018-10-21T10:19:57.118Z,4.50
2018-10-21T10:22:01.245Z,4.72
2018-10-21T10:24:05.433Z,6.25
2018-10-21T10:26:09.533Z,4.30
2018-10-21T10:28:13.810Z,5.10
2018-10-21T10:30:17.838Z,6.20
2018-10-21T10:32:21.909Z,4.75
2018-10-21T10:34:26.068Z,2.90
2018-10-21T10:36:30.173Z,2.83
2018-10-21T10:38:34.280Z,2.47
2018-10-21T10:40:38.419Z,4.30
2018-10-21T10:42:42.924Z,3.08
2018-10-21T10:44:47.077Z,3.27
2018-10-21T10:46:51.200Z,3.13
2018-10-21T10:48:55.343Z,3.33
2018-10-21T10:50:59.572Z,3.25
2018-10-21T10:53:03.845Z,3.83
2018-10-21T10:55:08.673Z,4.67
2018-10-21T10:57:12.749Z,3.77
2018-10-21T10:59:16.828Z,3.03
2018-10-21T11:01:21.031Z,4.58
2018-10-21T11:03:25.174Z,1.57
2018-10-21T11:05:30.451Z,1.87
2018-10-21T11:07:34.635Z,6.13
2018-10-21T11:09:38.739Z,2.67
2018-10-21T11:11:42.950Z,2.65
2018-10-21T11:13:47.045Z,2.87
2018-10-21T11:15:51.256Z,2.17
2018-10-21T11:17:55.381Z,0.85
2018-10-21T11:19:59.489Z,2.05
2018-10-21T11:22:03.667Z,2.52
2018-10-21T11:24:07.729Z,0.83
2018-10-21T11:26:11.813Z,2.13
2018-10-21T11:28:16.000Z,3.63
2018-10-21T11:30:20.049Z,2.60
2018-10-21T11:32:24.218Z,1.20
2018-10-21T11:34:28.316Z,1.17
2018-10-21T11:36:32.503Z,2.40
2018-10-21T11:38:36.614Z,2.72
2018-10-21T11:40:40.707Z,1.60
2018-10-21T11:42:44.838Z,1.83
2018-10-21T11:44:48.935Z,1.93
2018-10-21T11:46:53.338Z,1.70
2018-10-21T11:48:57.552Z,1.47
2018-10-21T11:51:01.652Z,4.03
2018-10-21T11:53:06.224Z,1.62
2018-10-21T11:55:11.861Z,1.90
2018-10-21T11:57:15.947Z,1.60
2018-10-21T11:59:20.084Z,2.47
2018-10-21T12:01:24.237Z,2.10
2018-10-21T12:03:28.376Z,1.80
2018-10-21T12:05:32.512Z,2.10
2018-10-21T12:07:36.693Z,2.42
2018-10-21T12:09:40.839Z,5.47
2018-10-21T12:11:44.924Z,2.12
2018-10-21T12:13:49.076Z,2.40
2018-10-21T12:15:53.195Z,4.30
2018-10-21T12:17:57.456Z,4.90
2018-10-21T12:20:01.584Z,3.70
2018-10-21T12:22:06.014Z,1.85
2018-10-21T12:24:10.158Z,2.60
2018-10-21T12:26:14.274Z,1.23
2018-10-21T12:28:18.561Z,1.42
2018-10-21T12:30:22.560Z,4.50
2018-10-21T12:32:26.701Z,3.72
2018-10-21T12:34:31.960Z,2.60
2018-10-21T12:36:36.072Z,1.30
2018-10-21T12:38:40.203Z,2.17
2018-10-21T12:40:44.362Z,3.70
2018-10-21T12:42:48.461Z,2.33
2018-10-21T12:44:52.625Z,2.57
2018-10-21T12:46:56.763Z,1.77
2018-10-21T12:49:00.929Z,2.08
2018-10-21T12:51:05.147Z,2.40
2018-10-21T12:53:09.471Z,2.73
2018-10-21T12:55:13.585Z,3.63
2018-10-21T12:57:17.623Z,2.35
2018-10-21T12:59:21.729Z,3.57
2018-10-21T13:01:25.913Z,1.67
2018-10-21T13:03:30.077Z,2.67
2018-10-21T13:05:34.141Z,2.87
2018-10-21T13:07:38.290Z,1.67
2018-10-21T13:09:42.432Z,2.00
2018-10-21T13:11:46.547Z,1.67
2018-10-21T13:13:50.661Z,1.60
2018-10-21T13:15:54.831Z,2.17
2018-10-21T13:17:58.977Z,1.60
2018-10-21T13:20:03.164Z,2.00
2018-10-21T13:22:07.316Z,1.57
2018-10-21T13:24:12.610Z,1.87
2018-10-21T13:26:16.771Z,2.20
2018-10-21T13:28:20.998Z,3.12
2018-10-21T13:30:25.013Z,3.60
2018-10-21T13:32:29.117Z,2.87
2018-10-21T13:34:33.297Z,1.63
2018-10-21T13:36:37.375Z,2.15
2018-10-21T13:38:41.513Z,2.50
2018-10-21T13:40:45.632Z,1.97
2018-10-21T13:42:49.753Z,2.92
2018-10-21T13:44:53.845Z,4.43
2018-10-21T13:46:57.951Z,2.50
2018-10-21T13:49:02.137Z,1.40
2018-10-21T13:51:06.593Z,2.70
2018-10-21T13:53:10.867Z,3.37
2018-10-21T13:55:14.963Z,1.53
2018-10-21T13:57:18.975Z,1.67
2018-10-21T13:59:23.126Z,1.57
2018-10-21T14:01:27.558Z,1.00
2018-10-21T14:03:32.687Z,3.75
2018-10-21T14:05:36.817Z,1.20
2018-10-21T14:07:40.937Z,2.80
2018-10-21T14:09:45.069Z,3.08
2018-10-21T14:11:49.167Z,1.07
2018-10-21T14:13:53.289Z,2.33
2018-10-21T14:15:57.430Z,1.80
2018-10-21T14:18:01.493Z,4.10
2018-10-21T14:20:07.329Z,1.60
2018-10-21T14:22:11.553Z,1.23
2018-10-21T14:24:15.664Z,1.83
2018-10-21T14:26:19.701Z,2.25
2018-10-21T14:28:23.828Z,2.30
2018-10-21T14:30:28.025Z,0.97
2018-10-21T14:32:32.915Z,2.07
2018-10-21T14:34:37.065Z,1.43
2018-10-21T14:36:41.188Z,1.23
2018-10-21T14:38:45.396Z,3.20
2018-10-21T14:40:49.488Z,1.82
2018-10-21T14:42:53.607Z,2.10
2018-10-21T14:44:57.721Z,3.15
2018-10-21T14:47:01.799Z,2.10
2018-10-21T14:49:06.392Z,1.40
2018-10-21T14:51:10.714Z,1.52
2018-10-21T14:53:14.815Z,1.63
2018-10-21T14:55:19.024Z,2.50
2018-10-21T14:57:23.057Z,1.03
2018-10-21T14:59:27.247Z,0.62
2018-10-21T15:01:31.377Z,1.27
2018-10-21T15:03:35.810Z,1.60
2018-10-21T15:05:39.872Z,1.23
2018-10-21T15:07:45.724Z,1.60
2018-10-21T15:09:50.345Z,2.60
2018-10-21T15:11:54.386Z,1.60
2018-10-21T15:13:58.476Z,1.52
2018-10-21T15:16:02.702Z,1.30
2018-10-21T15:18:06.759Z,2.60
2018-10-21T15:20:12.639Z,4.17
2018-10-21T15:22:16.739Z,3.53
2018-10-21T15:24:20.773Z,1.80
2018-10-21T15:26:24.883Z,1.15
2018-10-21T15:28:29.038Z,2.73
2018-10-21T15:30:33.538Z,1.37
2018-10-21T15:32:37.821Z,2.50
2018-10-21T15:34:42.054Z,2.43
2018-10-21T15:36:46.155Z,1.10
2018-10-21T15:38:50.229Z,2.95
2018-10-21T15:40:54.979Z,5.80
2018-10-21T15:42:59.102Z,2.65
2018-10-21T15:45:03.334Z,1.92
2018-10-21T15:47:07.439Z,2.07
2018-10-21T15:49:11.635Z,4.37
2018-10-21T15:51:15.806Z,1.87
2018-10-21T15:53:19.940Z,1.77
2018-10-21T15:55:24.037Z,3.58
2018-10-21T15:57:28.180Z,3.58
2018-10-21T15:59:32.696Z,3.10
2018-10-21T16:01:36.845Z,1.37
2018-10-21T16:03:41.682Z,1.53
2018-10-21T16:05:45.819Z,2.98
2018-10-21T16:07:49.927Z,2.45
2018-10-21T16:09:54.053Z,1.33
2018-10-21T16:11:58.184Z,5.20
2018-10-21T16:14:02.891Z,1.00
2018-10-21T16:16:07.365Z,1.53
2018-10-21T16:18:11.372Z,2.67
2018-10-21T16:20:15.664Z,2.80
2018-10-21T16:22:19.715Z,3.20
2018-10-21T16:24:23.757Z,0.80
2018-10-21T16:26:27.948Z,4.37
2018-10-21T16:28:32.022Z,2.00
2018-10-21T16:30:36.218Z,5.10
2018-10-21T16:32:40.976Z,0.93
2018-10-21T16:34:44.960Z,0.60
2018-10-21T16:36:49.292Z,2.60
2018-10-21T16:38:54.178Z,0.70
2018-10-21T16:40:58.272Z,0.78
2018-10-21T16:43:02.403Z,0.97
2018-10-21T16:45:07.258Z,3.67
2018-10-21T16:47:11.341Z,4.12
2018-10-21T16:49:15.500Z,2.10
2018-10-21T16:51:19.721Z,0.57
2018-10-21T16:53:23.859Z,1.75
2018-10-21T16:55:27.893Z,1.60
2018-10-21T16:57:32.110Z,2.33
2018-10-21T16:59:36.218Z,5.40
2018-10-21T17:01:40.352Z,2.73
2018-10-21T17:03:44.526Z,1.43
2018-10-21T17:05:48.652Z,1.35
2018-10-21T17:07:52.816Z,0.70
2018-10-21T17:09:57.292Z,4.53
2018-10-21T17:12:01.005Z,2.70
2018-10-21T17:14:05.167Z,0.80
2018-10-21T17:16:09.311Z,2.00
2018-10-21T17:18:14.426Z,2.72
2018-10-21T17:20:18.943Z,3.27
2018-10-21T17:22:23.060Z,0.90
2018-10-21T17:24:27.184Z,1.32
2018-10-21T17:26:31.276Z,1.55
2018-10-21T17:28:35.526Z,3.30
2018-10-21T17:30:39.651Z,1.80
2018-10-21T17:32:44.225Z,1.70
2018-10-21T17:34:48.392Z,2.08
2018-10-21T17:36:52.521Z,3.77
2018-10-21T17:38:56.599Z,3.47
2018-10-21T17:41:00.744Z,3.52
2018-10-21T17:43:04.914Z,2.55
2018-10-21T17:45:13.607Z,1.30
2018-10-21T17:47:17.705Z,2.20
2018-10-21T17:49:22.491Z,1.10
2018-10-21T17:51:26.656Z,3.53
2018-10-21T17:53:30.744Z,1.47
2018-10-21T17:55:35.140Z,1.30
2018-10-21T17:57:39.235Z,3.83
2018-10-21T17:59:43.416Z,3.60
2018-10-21T18:01:47.572Z,1.60
2018-10-21T18:03:51.900Z,2.67
2018-10-21T18:05:56.012Z,2.33
2018-10-21T18:08:00.168Z,2.00
2018-10-21T18:10:04.561Z,2.20
2018-10-21T18:12:08.699Z,1.40
2018-10-21T18:14:12.791Z,1.70
2018-10-21T18:16:16.971Z,3.30
2018-10-21T18:18:21.026Z,1.70
2018-10-21T18:20:26.272Z,3.37
2018-10-21T18:22:30.365Z,1.02
2018-10-21T18:24:35.389Z,1.52
2018-10-21T18:26:39.540Z,2.70
2018-10-21T18:28:43.619Z,2.65
2018-10-21T18:30:47.719Z,4.28
2018-10-21T18:32:51.849Z,2.63
2018-10-21T18:34:55.923Z,3.37
2018-10-21T18:37:00.140Z,3.20
2018-10-21T18:39:06.032Z,2.40
2018-10-21T18:41:10.306Z,3.10
2018-10-21T18:43:14.363Z,1.30
2018-10-21T18:45:18.517Z,1.87
2018-10-21T18:47:22.659Z,2.37
2018-10-21T18:49:26.784Z,1.30
2018-10-21T18:51:30.882Z,2.98
2018-10-21T18:53:35.001Z,2.62
2018-10-21T18:55:39.142Z,1.57
2018-10-21T18:57:43.263Z,1.80
2018-10-21T18:59:47.375Z,1.73
2018-10-21T19:01:51.482Z,1.43
2018-10-21T19:03:55.616Z,1.73
2018-10-21T19:05:59.750Z,1.47
2018-10-21T19:08:03.864Z,1.83
2018-10-21T19:10:11.092Z,2.40
2018-10-21T19:12:15.074Z,1.20
2018-10-21T19:14:19.218Z,2.73
2018-10-21T19:16:23.369Z,3.37
2018-10-21T19:18:27.541Z,4.08
2018-10-21T19:20:31.720Z,4.22
2018-10-21T19:22:35.802Z,3.23
2018-10-21T19:24:40.020Z,2.00
2018-10-21T19:26:49.941Z,2.53
2018-10-21T19:28:54.097Z,2.15
2018-10-21T19:30:58.347Z,4.80
2018-10-21T19:33:02.418Z,3.63
2018-10-21T19:35:07.712Z,3.12
2018-10-21T19:37:11.925Z,3.20
2018-10-21T19:39:19.555Z,1.80
2018-10-21T19:41:23.852Z,3.27
2018-10-21T19:43:28.130Z,3.27
2018-10-21T19:45:32.194Z,2.60
2018-10-21T19:47:36.579Z,3.40
2018-10-21T19:49:40.687Z,3.63
2018-10-21T19:51:44.815Z,2.20
2018-10-21T19:53:48.871Z,3.93
2018-10-21T19:55:53.000Z,3.45
2018-10-21T19:57:58.271Z,2.83
2018-10-21T20:00:02.461Z,2.25
2018-10-21T20:02:06.994Z,2.70
2018-10-21T20:04:11.362Z,3.95
2018-10-21T20:06:15.475Z,2.20
2018-10-21T20:08:19.618Z,2.73
2018-10-21T20:10:23.857Z,2.97
2018-10-21T20:12:27.987Z,3.40
2018-10-21T20:14:32.083Z,3.55
2018-10-21T20:16:36.224Z,2.47
2018-10-21T20:18:40.368Z,3.10
2018-10-21T20:20:45.821Z,3.22
2018-10-21T20:22:49.983Z,2.92
2018-10-21T20:24:54.987Z,4.53
2018-10-21T20:26:59.205Z,2.37
2018-10-21T20:29:03.493Z,3.67
2018-10-21T20:31:07.693Z,4.12
2018-10-21T20:33:12.293Z,2.60
2018-10-21T20:35:16.482Z,2.40
2018-10-21T20:37:20.612Z,3.17
2018-10-21T20:39:24.776Z,3.52
2018-10-21T20:41:28.953Z,2.15
2018-10-21T20:43:33.084Z,3.60
2018-10-21T20:45:37.183Z,2.33
2018-10-21T20:47:41.416Z,3.57
2018-10-21T20:49:45.635Z,3.17
2018-10-21T20:51:49.820Z,3.87
2018-10-21T20:53:53.924Z,2.45
2018-10-21T20:55:58.952Z,2.25
2018-10-21T20:58:03.165Z,2.52
2018-10-21T21:00:07.211Z,5.78
2018-10-21T21:02:12.582Z,2.20
2018-10-21T21:04:16.925Z,5.53
2018-10-21T21:06:21.004Z,3.03
2018-10-21T21:08:25.169Z,2.83
2018-10-21T21:10:29.396Z,2.87
2018-10-21T21:12:33.540Z,4.72
2018-10-21T21:14:38.761Z,2.53
2018-10-21T21:16:43.069Z,3.43
2018-10-21T21:18:47.357Z,3.30
2018-10-21T21:20:51.452Z,3.83
2018-10-21T21:22:55.933Z,3.03
2018-10-21T21:25:00.049Z,4.05
2018-10-21T21:27:04.205Z,3.67
2018-10-21T21:29:08.364Z,4.50
2018-10-21T21:31:12.471Z,3.42
2018-10-21T21:33:16.580Z,3.17
2018-10-21T21:35:20.680Z,4.23
2018-10-21T21:37:24.765Z,4.30
2018-10-21T21:39:29.596Z,4.40
2018-10-21T21:41:33.700Z,2.60
2018-10-21T21:43:38.936Z,3.53
2018-10-21T21:45:43.060Z,2.40
2018-10-21T21:47:47.239Z,2.80
2018-10-21T21:49:51.310Z,2.93
2018-10-21T21:51:55.405Z,3.62
2018-10-21T21:53:59.591Z,2.63
2018-10-21T21:56:03.616Z,2.90
2018-10-21T21:58:07.921Z,5.15
2018-10-21T22:00:13.924Z,3.08
2018-10-21T22:02:19.092Z,3.10
2018-10-21T22:04:23.190Z,4.17
2018-10-21T22:06:27.451Z,3.05
2018-10-21T22:08:31.673Z,3.57
2018-10-21T22:10:35.748Z,3.70
2018-10-21T22:12:40.820Z,2.67
2018-10-21T22:14:44.944Z,2.83
2018-10-21T22:16:49.025Z,3.17
2018-10-21T22:18:53.118Z,5.25
2018-10-21T22:20:57.220Z,3.00
2018-10-21T22:23:01.330Z,2.93
2018-10-21T22:25:05.801Z,4.25
2018-10-21T22:27:09.967Z,2.53
2018-10-21T22:29:14.040Z,4.07
2018-10-21T22:31:18.180Z,2.87
2018-10-21T22:33:22.286Z,4.90
2018-10-21T22:35:26.397Z,2.72
2018-10-21T22:37:30.613Z,3.62
2018-10-21T22:39:34.856Z,3.40
2018-10-21T22:41:39.580Z,2.90
2018-10-21T22:43:43.682Z,3.72
2018-10-21T22:45:47.745Z,2.80
2018-10-21T22:47:51.844Z,6.13
2018-10-21T22:49:56.027Z,4.22
2018-10-21T22:52:00.299Z,3.07
2018-10-21T22:54:04.400Z,3.25
2018-10-21T22:56:08.500Z,2.72
2018-10-21T22:58:12.662Z,2.77
2018-10-21T23:00:16.813Z,4.58
2018-10-21T23:02:20.896Z,4.23
2018-10-21T23:04:25.041Z,3.43
2018-10-21T23:06:29.169Z,4.65
2018-10-21T23:08:33.228Z,4.00
2018-10-21T23:10:37.345Z,2.72
2018-10-21T23:12:41.448Z,3.93
2018-10-21T23:14:45.674Z,2.50
2018-10-21T23:16:49.769Z,2.90
2018-10-21T23:20:05.821Z,3.58
2018-10-21T23:22:10.081Z,2.98
2018-10-21T23:24:14.294Z,4.03
2018-10-21T23:26:18.375Z,3.00
2018-10-21T23:28:22.473Z,5.63
2018-10-21T23:30:26.548Z,2.70
2018-10-21T23:32:30.640Z,5.05
2018-10-21T23:34:34.709Z,4.33
2018-10-21T23:36:39.960Z,3.10
2018-10-21T23:38:44.076Z,2.53
2018-10-21T23:40:48.124Z,2.95
2018-10-21T23:42:52.240Z,3.10
2018-10-21T23:44:56.344Z,2.90
2018-10-21T23:47:00.419Z,3.00
2018-10-21T23:49:04.569Z,3.53
2018-10-21T23:51:08.621Z,2.87
2018-10-21T23:53:12.725Z,3.62
2018-10-21T23:55:16.787Z,2.72
2018-10-21T23:57:20.908Z,4.60
2018-10-21T23:59:24.994Z,2.58
